Queensbury, New York
Current Conditions -  °F | °C
As of 12:53 AM on Sunday 23 Nov 2014 (Local Time) from KGFL Reporting Station
Light Rain Light Rain  
Wind Chill: 32°   Ceiling: 2300
Heat Index: 37°   Visibility: 10mi
Dew Point: 26°   Wind: 7mph
Humidity: 65%   Direction: 180°S
Pressure: 30.06"   Gusts: NA
Location:  43.38°N, 73.61°W
Report Text: KGFL 230553Z AUTO 18006KT 10SM -RA OVC023 03/M03 A3006 RMK AO2 RAB53 SLP185 P0000 60000 T00281033 10028 20017 53004
Loading
Personal Weather Stations






























Interactive Weather Map New forecast layout! Learn more

10-Day Weather Forecast

Advertisements
Track Severe Weather on mobile